Data for 05/20/2009

Time Sea-Level Adjusted Pressure Absolute Pressure Temperature Relative Humidity Dew Point   
(mb) (inHg) (mb) (inHg) (C) (F) (%) (C) (F)
00:05 1013 29.91 843 24.89 16.6 61.9 54 7.3 45.1
00:10 1013 29.91 843 24.89 16.6 61.9 53 7 44.6
00:15 1013 29.91 843 24.89 16.5 61.7 53 7.1 44.8
00:20 1013 29.91 843 24.89 16.5 61.6 52 6.6 43.9
00:25 1013 29.91 842 24.86 16.6 61.8 53 7 44.6
00:30 1013 29.91 842 24.86 16.4 61.5 53 7 44.6
00:35 1013 29.91 842 24.86 16.1 61.1 54 7 44.6
00:40 1013 29.91 842 24.86 16 60.7 54 6.9 44.4
00:45 1013 29.91 842 24.86 15.7 60.3 55 6.7 44.1
00:50 1013 29.91 842 24.86 15.7 60.2 55 6.7 44
00:55 1013 29.91 842 24.86 15.7 60.3 54 6.5 43.6
01:00 1013 29.91 842 24.86 15.8 60.5 53 6.4 43.5
01:05 1013 29.91 842 24.86 15.7 60.3 55 6.7 44
01:10 1013 29.91 842 24.86 15.5 59.9 55 6.5 43.7
01:15 1013 29.91 842 24.86 15.4 59.7 55 6.4 43.5
01:20 1013 29.91 842 24.86 15.3 59.5 56 6.6 43.9
01:25 1013 29.91 842 24.86 15.3 59.5 54 6.1 43.1
01:30 1013 29.91 842 24.86 15.6 60 53 6.2 43.1
01:35 1013 29.91 842 24.86 15.5 59.8 54 6.2 43.1
01:40 1012 29.88 842 24.86 15.4 59.7 54 6.1 43
01:45 1012 29.88 842 24.86 15.3 59.5 54 6.1 43
01:50 1012 29.88 842 24.86 15.3 59.5 54 6.2 43.2
01:55 1012 29.88 842 24.86 15.3 59.5 52 5.7 42.2
02:00 1012 29.88 842 24.86 15.4 59.7 53 5.9 42.6
02:05 1012 29.88 841 24.83 15.4 59.7 53 5.9 42.7
02:10 1012 29.88 841 24.83 15.3 59.5 53 5.8 42.4
02:15 1012 29.88 841 24.83 15.3 59.5 51 5.3 41.5
02:20 1012 29.88 841 24.83 15.4 59.7 52 5.6 42.1
02:25 1012 29.88 841 24.83 15.3 59.6 52 5.5 41.9
02:30 1012 29.88 841 24.83 15.3 59.5 54 6.1 42.9
02:35 1012 29.88 841 24.83 15.4 59.7 50 5.1 41.2
02:40 1012 29.88 841 24.83 15.5 59.9 50 5.2 41.3
02:45 1012 29.88 841 24.83 15.4 59.8 50 5.1 41.1
02:50 1012 29.88 841 24.83 15.6 60.1 49 4.9 40.9
02:55 1012 29.88 841 24.83 16 60.7 45 4.2 39.5
03:00 1012 29.88 841 24.83 16.1 60.9 47 4.7 40.5
03:05 1012 29.88 841 24.83 16.1 61 45 4.1 39.4
03:10 1012 29.88 841 24.83 16.1 60.9 45 4.3 39.8
03:15 1012 29.88 841 24.83 16 60.8 45 4.3 39.7
03:20 1012 29.88 841 24.83 16.1 61 45 4.2 39.6
03:25 1012 29.88 841 24.83 16 60.8 45 4.2 39.5
03:30 1012 29.88 841 24.83 16.1 60.9 47 4.7 40.5
03:35 1012 29.88 841 24.83 15.9 60.5 46 4.5 40.1
03:40 1012 29.88 841 24.83 15.9 60.7 44 3.8 38.9
03:45 1012 29.88 841 24.83 15.8 60.4 45 4.1 39.4
03:50 1011 29.85 841 24.83 15.9 60.7 47 4.8 40.6
03:55 1011 29.85 841 24.83 15.5 59.8 46 3.8 38.9
04:00 1011 29.85 841 24.83 16.1 60.9 37 1.5 34.7
04:05 1011 29.85 841 24.83 16.9 62.4 41 3.5 38.3
04:10 1011 29.85 841 24.83 16.5 61.6 39 2.7 36.9
04:15 1011 29.85 841 24.83 16.6 61.8 41 3.5 38.4
04:20 1011 29.85 841 24.83 16.1 61 43 3.8 38.9
04:25 1011 29.85 841 24.83 16.3 61.3 35 1 33.7
04:30 1011 29.85 841 24.83 17.5 63.5 32 0.9 33.7
04:35 1012 29.88 841 24.83 18.1 64.6 36 2.8 37
04:40 1012 29.88 841 24.83 17.3 63.2 40 3.6 38.5
04:45 1012 29.88 841 24.83 16.9 62.5 37 2.1 35.9
04:50 1012 29.88 841 24.83 16.6 62 39 2.6 36.8
04:55 1012 29.88 841 24.83 16.7 62.1 36 1.9 35.4
05:00 1012 29.88 841 24.83 17.2 63 34 1.4 34.5
05:05 1012 29.88 841 24.83 17.4 63.3 34 1.4 34.6
05:10 1012 29.88 841 24.83 17.6 63.7 32 1 33.8
05:15 1011 29.85 841 24.83 17.9 64.1 33 1.3 34.4
05:20 1011 29.85 841 24.83 17.5 63.4 33 1.1 33.9
05:25 1011 29.85 841 24.83 17.4 63.3 33 1.2 34.1
05:30 1011 29.85 841 24.83 17.7 63.9 32 1.1 33.9
05:35 1011 29.85 840 24.81 17.5 63.6 31 0.6 33
05:40 1011 29.85 840 24.81 17.7 63.8 33 1.5 34.6
05:45 1011 29.85 840 24.81 17.2 63 37 2.6 36.7
05:50 1011 29.85 840 24.81 16.5 61.7 40 2.8 37.1
05:55 1011 29.85 840 24.81 16 60.9 37 1.5 34.7
06:00 1011 29.85 840 24.81 16.8 62.2 36 1.8 35.2
06:05 1011 29.85 840 24.81 17.4 63.4 31 0.2 32.4
06:10 1011 29.85 840 24.81 17.9 64.2 32 0.9 33.7
06:15 1011 29.85 840 24.81 17.4 63.3 36 2.2 36
06:20 1011 29.85 840 24.81 17.2 62.9 35 1.6 34.8
06:25 1011 29.85 840 24.81 18.4 65.1 27 -0.6 30.9
06:30 1011 29.85 840 24.81 21.4 70.5 25 0.6 33.1
06:35 1011 29.85 840 24.81 22.2 71.9 21 -0.7 30.7
06:40 1011 29.85 840 24.81 22.5 72.6 22 -0.1 31.8
06:45 1011 29.85 840 24.81 22.7 72.9 21 -0.5 31
06:50 1011 29.85 840 24.81 22.7 72.9 23 0.6 33.1
06:55 1011 29.85 840 24.81 22.3 72.2 24 0.8 33.4
07:00 1011 29.85 840 24.81 22.2 72 24 1 33.7
07:05 1011 29.85 840 24.81 22.1 71.9 23 0.3 32.5
07:10 1011 29.85 840 24.81 22.3 72.2 23 0.6 33.1
07:15 1011 29.85 840 24.81 22.6 72.7 26 2.3 36.2
07:20 1011 29.85 840 24.81 22.8 73.1 25 1.8 35.2
07:25 1011 29.85 840 24.81 23.1 73.5 25 2 35.5
07:30 1011 29.85 840 24.81 23.4 74.1 24 1.9 35.4
07:35 1011 29.85 840 24.81 23.7 74.7 23 1.6 34.8
07:40 1011 29.85 840 24.81 23.8 74.9 22 1 33.8
07:45 1011 29.85 840 24.81 24.2 75.5 21 0.6 33
07:50 1011 29.85 840 24.81 23.8 74.9 24 2 35.6
07:55 1011 29.85 840 24.81 23.6 74.6 21 0.2 32.3
08:00 1011 29.85 840 24.81 23.5 74.3 21 0.5 32.8
08:05 1011 29.85 840 24.81 23.3 74 21 0.1 32.1
08:10 1011 29.85 840 24.81 23.2 73.8 21 0 32
08:15 1011 29.85 840 24.81 23.2 73.8 21 -0 32
08:20 1011 29.85 840 24.81 23.2 73.8 22 0.7 33.2
08:25 1011 29.85 840 24.81 23.5 74.4 23 1.5 34.8
08:30 1011 29.85 840 24.81 24.3 75.7 24 2.5 36.5
08:35 1011 29.85 840 24.81 24.5 76.2 24 2.8 37.1
08:40 1011 29.85 840 24.81 24.1 75.4 24 2.4 36.3
08:45 1011 29.85 840 24.81 23.8 74.9 22 0.9 33.6
08:50 1011 29.85 840 24.81 24 75.3 22 1.1 33.9
08:55 1011 29.85 840 24.81 24 75.3 21 0.9 33.6
09:00 1010 29.83 840 24.81 24 75.3 22 1.2 34.1
09:05 1010 29.83 840 24.81 24.1 75.4 21 0.4 32.7
09:10 1010 29.83 839 24.78 24.1 75.4 21 0.8 33.4
09:15 1010 29.83 839 24.78 24.1 75.4 21 0.6 33.1
09:20 1010 29.83 839 24.78 24.2 75.5 22 1.5 34.8
09:25 1010 29.83 839 24.78 24.4 76 23 2.2 35.9
09:30 1010 29.83 839 24.78 25.1 77.3 23 2.8 37.1
09:35 1010 29.83 839 24.78 25.6 78 22 2.7 36.9
09:40 1010 29.83 839 24.78 25.8 78.5 21 2.2 36
09:45 1010 29.83 839 24.78 25.4 77.7 17 -0.9 30.3
09:50 1010 29.83 839 24.78 25.4 77.6 18 -0.2 31.6
09:55 1010 29.83 839 24.78 25.2 77.3 19 0.5 32.9
10:00 1010 29.83 839 24.78 25.6 78 19 0.7 33.3
10:05 1010 29.83 839 24.78 26.2 79.1 16 -1.1 30
10:10 1010 29.83 839 24.78 26.8 80.2 19 1.4 34.5
10:15 1010 29.83 839 24.78 27.3 81.1 21 3.6 38.5
10:20 1010 29.83 839 24.78 27.3 81.2 22 4 39.3
10:25 1010 29.83 839 24.78 27.8 82 18 1.8 35.2
10:30 1010 29.83 839 24.78 27.8 82 15 -0.9 30.5
10:35 1009 29.8 839 24.78 28 82.3 14 -1.3 29.6
10:40 1009 29.8 839 24.78 27.7 81.9 14 -2.1 28.3
10:45 1009 29.8 838 24.75 27.3 81.1 14 -2 28.4
10:50 1009 29.8 838 24.75 27.2 80.9 14 -2.1 28.2
10:55 1009 29.8 838 24.75 27.4 81.3 14 -2.5 27.6
11:00 1009 29.8 838 24.75 26.8 80.2 15 -2 28.4
11:05 1009 29.8 838 24.75 27 80.6 15 -1.6 29.1
11:10 1009 29.8 838 24.75 27.1 80.8 15 -1.7 28.9
11:15 1009 29.8 838 24.75 27.1 80.8 15 -1.4 29.4
11:20 1009 29.8 838 24.75 27.1 80.8 14 -2.1 28.1
11:25 1009 29.8 838 24.75 27 80.5 14 -2.6 27.3
11:30 1009 29.8 838 24.75 27 80.5 14 -2.2 28
11:35 1009 29.8 838 24.75 27.2 80.9 13 -2.9 26.7
11:40 1009 29.8 838 24.75 26.9 80.3 14 -2.3 27.9
11:45 1009 29.8 838 24.75 27 80.6 13 -3 26.7
11:50 1009 29.8 838 24.75 27 80.5 15 -1.9 28.5
11:55 1009 29.8 838 24.75 27.1 80.9 13 -3.2 26.2
12:00 1008 29.77 838 24.75 26.9 80.5 13 -3.2 26.3
12:05 1008 29.77 838 24.75 26.9 80.5 13 -3.2 26.3
12:10 1008 29.77 838 24.75 27 80.6 13 -3.4 26
12:15 1008 29.77 838 24.75 26.8 80.3 13 -3.2 26.3
12:20 1008 29.77 838 24.75 26.9 80.3 14 -2.7 27.2
12:25 1008 29.77 837 24.72 27 80.6 14 -2.7 27.2
12:30 1008 29.77 837 24.72 27.2 81 14 -2.5 27.6
12:35 1008 29.77 837 24.72 27.2 80.9 14 -2.6 27.3
12:40 1008 29.77 837 24.72 27.1 80.9 13 -2.9 26.8
12:45 1008 29.77 837 24.72 27.4 81.2 14 -1.7 28.9
12:50 1008 29.77 837 24.72 27.4 81.3 14 -2.3 27.9
15:35 1007 29.74 837 24.72 26.6 79.8 14 -2.4 27.7
15:40 1007 29.74 837 24.72 26.4 79.6 14 -2.6 27.4
15:45 1007 29.74 837 24.72 26.1 79 18 0.2 32.3
15:50 1007 29.74 837 24.72 25.5 77.8 16 -1.7 28.9
15:55 1008 29.77 837 24.72 25.4 77.7 19 0.1 32.2
16:00 1007 29.74 837 24.72 25.3 77.5 16 -1.8 28.7
16:05 1007 29.74 837 24.72 25.2 77.3 18 -0.3 31.5
16:10 1007 29.74 836 24.69 25.2 77.4 17 -1.1 30.1
16:15 1007 29.74 836 24.69 25.8 78.5 17 -0.7 30.8
16:20 1007 29.74 836 24.69 26 78.9 15 -2.3 27.8
16:25 1007 29.74 836 24.69 25.6 78.2 19 0.2 32.4
16:30 1007 29.74 836 24.69 26 78.8 17 -0.6 30.9
16:35 1007 29.74 836 24.69 26.4 79.4 16 -1.1 30
16:40 1007 29.74 836 24.69 26.4 79.6 18 0.2 32.4
16:45 1007 29.74 836 24.69 26.3 79.4 15 -2.4 27.6
16:50 1007 29.74 836 24.69 26.2 79.2 14 -3.1 26.5
16:55 1007 29.74 836 24.69 26 78.8 15 -2.6 27.4
17:00 1007 29.74 836 24.69 26.4 79.4 15 -2.4 27.7
17:05 1007 29.74 836 24.69 26.8 80.3 15 -1.9 28.5
17:10 1007 29.74 836 24.69 26.5 79.6 15 -2.1 28.2
17:15 1007 29.74 836 24.69 26.1 79 17 -0.8 30.5
17:20 1007 29.74 836 24.69 25.4 77.6 17 -1 30.1
17:25 1007 29.74 836 24.69 25 77 18 -0.9 30.3
17:30 1007 29.74 836 24.69 25.2 77.4 18 -0.6 30.9
17:35 1007 29.74 836 24.69 25.5 77.8 18 -0.2 31.7
17:40 1007 29.74 836 24.69 25.8 78.4 17 -0.9 30.3
17:45 1007 29.74 836 24.69 25.8 78.4 16 -2.1 28.2
17:50 1007 29.74 836 24.69 25.5 77.8 17 -0.7 30.7
17:55 1007 29.74 837 24.72 25.2 77.3 17 -1 30.2
18:00 1007 29.74 837 24.72 25.1 77.2 19 -0 31.9
18:05 1007 29.74 837 24.72 25.1 77.2 18 -0.3 31.4
18:10 1007 29.74 837 24.72 25.6 78.1 16 -2.2 28
18:15 1007 29.74 836 24.69 25.6 78.1 14 -3.6 25.6
18:20 1007 29.74 837 24.72 25.5 77.8 15 -2.5 27.5
18:25 1007 29.74 837 24.72 25.6 78 16 -1.8 28.8
18:30 1007 29.74 837 24.72 25.6 78.1 15 -2.7 27.2
18:35 1007 29.74 837 24.72 25.3 77.5 17 -1.6 29.1
18:40 1007 29.74 837 24.72 25.1 77.3 17 -1.5 29.2
18:45 1007 29.74 837 24.72 25.1 77.2 15 -3 26.7
18:50 1007 29.74 837 24.72 24.9 76.8 17 -1.5 29.4
18:55 1007 29.74 837 24.72 24.7 76.4 16 -2.9 26.8
19:00 1007 29.74 837 24.72 24.6 76.3 16 -2.3 27.8
19:05 1007 29.74 837 24.72 24.6 76.2 15 -3.2 26.2
19:10 1007 29.74 837 24.72 24.6 76.2 17 -1.8 28.7
19:15 1007 29.74 836 24.69 24.4 75.9 16 -2.4 27.6
19:20 1007 29.74 836 24.69 24.2 75.6 18 -1.7 28.9
19:25 1007 29.74 836 24.69 24.1 75.3 17 -2.5 27.6
19:30 1007 29.74 836 24.69 23.9 75.1 17 -2 28.4
19:35 1007 29.74 836 24.69 23.7 74.7 19 -1.2 29.8
19:40 1007 29.74 836 24.69 23.5 74.2 19 -1.5 29.4
19:45 1007 29.74 836 24.69 23.3 73.9 19 -1.3 29.7
19:50 1007 29.74 836 24.69 23 73.4 20 -1 30.2
19:55 1007 29.74 836 24.69 22.8 73 21 -0.7 30.8
20:00 1007 29.74 836 24.69 22.4 72.3 21 -0.9 30.4
20:05 1007 29.74 836 24.69 22.3 72.1 21 -0.9 30.3
20:10 1007 29.74 836 24.69 22.3 72.1 20 -1.6 29.2
20:15 1007 29.74 836 24.69 22.3 72.1 21 -0.7 30.7
20:20 1007 29.74 836 24.69 21.9 71.4 22 -0.8 30.5
20:25 1007 29.74 836 24.69 21.9 71.4 21 -1 30.1
20:30 1007 29.74 837 24.72 21.7 71 23 0 32
20:35 1007 29.74 837 24.72 21.4 70.6 22 -1 30.3
20:40 1007 29.74 837 24.72 21.6 70.8 22 -0.7 30.7
20:45 1008 29.77 837 24.72 21.5 70.7 23 -0.5 31.1
20:50 1008 29.77 837 24.72 21.5 70.7 23 -0.1 31.8
20:55 1008 29.77 837 24.72 21.4 70.5 23 -0.5 31.2
21:00 1008 29.77 837 24.72 21.4 70.6 23 -0.2 31.7
21:05 1008 29.77 837 24.72 21.3 70.4 23 -0.2 31.7
21:10 1008 29.77 837 24.72 21.5 70.6 22 -0.8 30.6
21:15 1008 29.77 837 24.72 22.1 71.7 22 -0.3 31.4
21:20 1008 29.77 837 24.72 21.7 71 23 0.1 32.1
21:25 1008 29.77 837 24.72 21.4 70.4 23 -0.6 31
21:30 1009 29.8 838 24.75 21.5 70.7 26 1.1 34
21:35 1009 29.8 838 24.75 20.4 68.7 28 1.6 34.9
21:40 1009 29.8 838 24.75 19.4 66.9 33 2.9 37.3
21:45 1009 29.8 838 24.75 18.3 64.9 35 2.7 36.8
21:50 1009 29.8 838 24.75 18.1 64.7 35 2.8 37
21:55 1009 29.8 838 24.75 17.6 63.7 37 2.9 37.2
22:00 1009 29.8 838 24.75 17 62.7 39 3 37.3
22:05 1009 29.8 839 24.78 16.5 61.7 41 3.2 37.7
22:10 1010 29.83 839 24.78 16.2 61.2 42 3.3 37.9
22:15 1010 29.83 839 24.78 16 60.7 41 2.7 36.8
22:20 1010 29.83 839 24.78 15.7 60.2 41 2.6 36.6
22:25 1010 29.83 840 24.81 15.4 59.7 46 3.9 39
22:30 1010 29.83 840 24.81 14.6 58.2 48 3.8 38.8
22:35 1011 29.85 840 24.81 14.1 57.4 48 3.4 38.1
22:40 1011 29.85 840 24.81 13.3 56 50 3.3 37.9
22:45 1011 29.85 840 24.81 12.7 54.8 50 2.7 36.9
22:50 1011 29.85 840 24.81 12.4 54.4 51 2.5 36.5
22:55 1011 29.85 840 24.81 12.3 54.1 50 2.1 35.7
23:00 1011 29.85 840 24.81 11.9 53.4 50 1.8 35.2
23:05 1011 29.85 840 24.81 11.8 53.2 50 1.6 34.9
23:10 1011 29.85 840 24.81 11.9 53.3 49 1.7 35
23:15 1011 29.85 841 24.83 11.6 52.9 50 1.7 35
23:20 1011 29.85 841 24.83 11.4 52.4 50 1.3 34.4
23:25 1012 29.88 841 24.83 11.1 51.9 51 1.3 34.4
23:30 1012 29.88 841 24.83 10.9 51.6 50 1.1 33.9
23:35 1012 29.88 841 24.83 10.7 51.2 51 0.9 33.7
23:40 1012 29.88 841 24.83 10.4 50.7 51 0.8 33.5
23:45 1012 29.88 841 24.83 10.3 50.6 52 0.8 33.5
23:50 1012 29.88 841 24.83 10.3 50.5 51 0.6 33.1
23:55 1012 29.88 841 24.83 10.2 50.4 49 0.2 32.3
24:00 1012 29.88 841 24.83 10 50 49 -0.1 31.8
00:05 1012 29.88 841 24.83 9.9 49.7 50 0 32
00:10 1012 29.88 841 24.83 9.7 49.5 50 -0.1 31.8
00:15 1013 29.91 842 24.86 9.5 49.2 50 -0.3 31.5
00:20 1012 29.88 842 24.86 9.4 48.9 50 -0.4 31.4
00:25 1012 29.88 842 24.86 9.2 48.6 51 -0.3 31.5
00:30 1012 29.88 842 24.86 9.1 48.4 51 -0.3 31.4
00:35 1013 29.91 842 24.86 9 48.2 52 -0.4 31.2
00:40 1013 29.91 842 24.86 8.8 47.9 51 -0.6 30.9
00:45 1013 29.91 842 24.86 8.8 47.8 51 -0.8 30.6
00:50 1013 29.91 842 24.86 8.7 47.6 50 -1.1 30.1
00:55 1013 29.91 842 24.86 8.6 47.5 51 -1 30.3
01:00 1013 29.91 842 24.86 8.6 47.4 51 -1 30.1
01:05 1013 29.91 842 24.86 8.6 47.5 51 -1 30.1
01:10 1013 29.91 842 24.86 8.5 47.3 51 -1 30.2
01:15 1013 29.91 842 24.86 8.5 47.3 51 -1 30.2
01:20 1013 29.91 842 24.86 8.7 47.6 51 -1 30.3
01:25 1013 29.91 842 24.86 9 48.2 49 -1.1 30
01:30 1013 29.91 843 24.89 9 48.2 51 -0.6 31
01:35 1014 29.94 843 24.89 8.6 47.5 52 -0.8 30.6
01:40 1014 29.94 843 24.89 8.6 47.4 50 -1.3 29.7
01:45 1014 29.94 843 24.89 8.7 47.7 50 -1.2 29.9
01:50 1014 29.94 843 24.89 8.4 47 52 -0.9 30.3
01:55 1013 29.91 843 24.89 8.2 46.7 52 -1.1 30
02:00 1014 29.94 843 24.89 8 46.5 51 -1.4 29.6
02:05 1014 29.94 843 24.89 8 46.4 53 -1.1 30.1
02:10 1014 29.94 843 24.89 7.9 46.2 51 -1.6 29.2
02:15 1014 29.94 843 24.89 8.2 46.8 49 -1.8 28.8
02:20 1014 29.94 843 24.89 8.6 47.4 48 -1.8 28.8
02:25 1014 29.94 843 24.89 8.7 47.7 49 -1.4 29.4
02:30 1014 29.94 843 24.89 8.6 47.5 48 -1.7 28.9
02:35 1014 29.94 843 24.89 8.8 47.8 50 -1.1 30
02:40 1014 29.94 843 24.89 8.3 47 51 -1.2 29.9
02:45 1014 29.94 843 24.89 8.5 47.3 50 -1.2 29.9
02:50 1014 29.94 843 24.89 8.5 47.3 51 -1.1 30
02:55 1014 29.94 843 24.89 8.5 47.2 51 -1 30.2
03:00 1014 29.94 843 24.89 8.4 47.2 52 -0.8 30.5
03:05 1014 29.94 843 24.89 8.4 47.1 52 -0.9 30.4
03:10 1014 29.94 843 24.89 8.3 47 51 -1.3 29.7
03:15 1014 29.94 844 24.92 8.4 47.2 50 -1.4 29.4
03:20 1014 29.94 843 24.89 8.5 47.3 51 -1.1 30
03:25 1014 29.94 844 24.92 8.5 47.3 50 -1.3 29.7
03:30 1015 29.97 844 24.92 8.4 47.1 50 -1.3 29.6
03:35 1014 29.94 844 24.92 8.4 47.2 50 -1.3 29.7
03:40 1014 29.94 844 24.92 8.5 47.2 51 -1.1 30
03:45 1015 29.97 844 24.92 8.4 47.2 50 -1.4 29.5
03:50 1015 29.97 844 24.92 8.4 47.1 51 -1.2 29.9
03:55 1015 29.97 844 24.92 8.4 47.1 50 -1.3 29.6
04:00 1015 29.97 844 24.92 8.3 46.9 53 -0.6 30.9
04:05 1015 29.97 844 24.92 8.2 46.8 54 -0.5 31.1
04:10 1015 29.97 844 24.92 8.1 46.7 58 0.3 32.6
04:15 1015 29.97 844 24.92 8.1 46.5 57 -0 32
04:20 1015 29.97 844 24.92 7.9 46.2 58 0.3 32.5
04:25 1015 29.97 844 24.92 7.5 45.4 60 0.1 32.2
04:30 1015 29.97 844 24.92 7.5 45.5 59 0.1 32.2
04:35 1015 29.97 844 24.92 7.5 45.6 60 0.3 32.5
04:40 1015 29.97 844 24.92 7.6 45.7 59 0.2 32.4
04:45 1015 29.97 844 24.92 7.7 45.8 61 0.6 33.1
04:50 1015 29.97 844 24.92 7.7 45.8 61 0.7 33.3
04:55 1015 29.97 844 24.92 7.7 45.9 59 0.2 32.4
05:00 1015 29.97 844 24.92 7.6 45.6 60 0.4 32.7
05:05 1015 29.97 844 24.92 7.6 45.6 59 0.2 32.3
05:10 1015 29.97 845 24.95 7.5 45.4 59 0.1 32.2
05:15 1015 29.97 845 24.95 7.6 45.6 58 -0.2 31.7
05:20 1015 29.97 845 24.95 7.6 45.7 58 -0.1 31.8
05:25 1015 29.97 845 24.95 7.6 45.7 54 -1 30.2
05:30 1015 29.97 845 24.95 7.7 45.8 49 -2.2 28
05:35 1015 29.97 845 24.95 7.7 45.9 49 -2.2 28.1
05:40 1015 29.97 845 24.95 7.7 45.9 48 -2.7 27.2
05:45 1015 29.97 845 24.95 7.7 45.9 47 -3 26.6
05:50 1015 29.97 845 24.95 7.6 45.6 46 -3.2 26.2
05:55 1016 30 845 24.95 7.6 45.6 46 -3.4 25.9
06:00 1016 30 845 24.95 7.5 45.5 46 -3.2 26.2
06:05 1016 30 845 24.95 7.5 45.6 47 -3 26.6
06:10 1016 30 845 24.95 7.5 45.6 48 -2.7 27.1
06:15 1016 30 845 24.95 7.4 45.4 48 -2.7 27.1
06:20 1016 30 845 24.95 7.3 45.2 47 -3.3 26.1
06:25 1016 30 845 24.95 7.3 45.2 48 -2.8 26.9
06:30 1016 30 845 24.95 7.4 45.3 46 -3.5 25.7
06:35 1016 30 845 24.95 7.6 45.7 47 -3.1 26.5
06:40 1016 30 845 24.95 7.4 45.4 47 -3.1 26.4
06:45 1016 30 845 24.95 7.5 45.5 47 -3 26.6
06:50 1016 30 845 24.95 7.4 45.3 47 -3.1 26.3
06:55 1016 30 845 24.95 7.5 45.5 47 -3.1 26.4
07:00 1016 30 845 24.95 7.7 45.9 46 -3.3 26.1
07:05 1016 30 845 24.95 8 46.3 46 -3 26.6
07:10 1016 30 845 24.95 7.8 46 47 -2.9 26.8
07:15 1016 30 845 24.95 7.7 45.9 47 -2.9 26.7
07:20 1016 30 845 24.95 8.5 47.3 43 -3.3 26
07:25 1016 30 845 24.95 9 48.3 42 -3.3 26.1
07:30 1016 30 845 24.95 9.1 48.4 40 -3.6 25.5
07:35 1016 30 845 24.95 9.2 48.6 40 -3.7 25.3
07:40 1016 30 845 24.95 9.2 48.5 39 -4 24.9
07:45 1016 30 845 24.95 9.5 49.1 40 -3.5 25.6
07:50 1016 30 846 24.98 10 50.1 39 -3.3 26.1
07:55 1016 30 846 24.98 9.6 49.2 42 -2.6 27.4
08:00 1016 30 846 24.98 9.2 48.5 38 -4.3 24.2
08:05 1016 30 846 24.98 9.3 48.7 39 -3.9 25
08:10 1017 30.03 846 24.98 9 48.2 38 -4.6 23.8
08:15 1017 30.03 846 24.98 8.6 47.4 39 -4.4 24
08:20 1017 30.03 846 24.98 9.1 48.3 37 -5 23
08:25 1017 30.03 846 24.98 9.2 48.5 38 -4.3 24.2
08:30 1017 30.03 846 24.98 8.7 47.7 38 -4.6 23.7
08:35 1017 30.03 846 24.98 8.8 47.9 39 -4.4 24.1
08:40 1017 30.03 846 24.98 9.3 48.8 37 -4.7 23.5
08:45 1017 30.03 846 24.98 10.2 50.4 34 -4.9 23.1
08:50 1017 30.03 846 24.98 9.8 49.7 37 -4 24.9
08:55 1017 30.03 846 24.98 9.6 49.3 36 -4.6 23.7
09:00 1017 30.03 846 24.98 10.2 50.4 36 -4.3 24.3
09:05 1017 30.03 846 24.98 10.2 50.3 36 -4.2 24.5
09:10 1017 30.03 846 24.98 10.4 50.7 35 -4.4 24.1
09:15 1017 30.03 846 24.98 10.3 50.5 34 -4.7 23.6
09:20 1017 30.03 846 24.98 10.5 50.9 35 -4.3 24.2
09:25 1017 30.03 846 24.98 10.7 51.3 34 -4.3 24.3
09:30 1017 30.03 846 24.98 11.2 52.2 33 -4.4 24
09:35 1017 30.03 846 24.98 10.4 50.7 35 -4.4 24.2
09:40 1017 30.03 846 24.98 11.4 52.6 34 -3.8 25.2
09:45 1017 30.03 846 24.98 11.1 51.9 34 -4.1 24.7
09:50 1017 30.03 846 24.98 11.3 52.3 34 -4.1 24.6
09:55 1017 30.03 846 24.98 11.9 53.4 34 -3.4 25.8
10:00 1017 30.03 846 24.98 11.5 52.7 34 -3.9 24.9
10:05 1017 30.03 846 24.98 10.4 50.7 38 -3.4 25.9
10:10 1017 30.03 846 24.98 10.7 51.2 36 -3.8 25.2
10:15 1017 30.03 846 24.98 11.6 52.9 34 -3.6 25.5
10:20 1017 30.03 846 24.98 11.2 52.2 35 -3.6 25.5
10:25 1017 30.03 846 24.98 11.5 52.7 36 -3.2 26.3
10:30 1017 30.03 846 24.98 11.8 53.3 34 -3.4 25.8
10:35 1017 30.03 846 24.98 11.6 53 35 -3.3 26
10:40 1017 30.03 847 25.01 11.9 53.3 35 -3.2 26.2
10:45 1017 30.03 847 25.01 11.7 53.1 37 -2.5 27.4
10:50 1017 30.03 847 25.01 12.4 54.4 35 -2.5 27.5
10:55 1017 30.03 847 25.01 12 53.6 37 -2.2 28.1
11:00 1017 30.03 847 25.01 11.4 52.6 37 -2.6 27.3
11:05 1017 30.03 847 25.01 11.9 53.5 36 -2.5 27.6
11:10 1017 30.03 846 24.98 12.3 54.1 35 -2.7 27.2
11:15 1017 30.03 847 25.01 12.4 54.4 34 -3.1 26.4
11:20 1017 30.03 847 25.01 12.2 53.9 35 -2.8 27
11:25 1018 30.06 847 25.01 12.1 53.8 36 -2.6 27.3
11:30 1018 30.06 847 25.01 12.1 53.9 34 -3 26.6
11:35 1018 30.06 847 25.01 11.4 52.6 36 -3 26.6
11:40 1018 30.06 847 25.01 11.5 52.7 37 -2.7 27.2
11:45 1018 30.06 847 25.01 11.7 53 35 -3.1 26.5
11:50 1017 30.03 847 25.01 12.1 53.7 35 -3 26.6
11:55 1017 30.03 847 25.01 12 53.6 34 -3.2 26.2
12:00 1018 30.06 847 25.01 12.2 53.9 34 -3.3 26.1
12:05 1018 30.06 847 25.01 12.2 53.9 36 -2.5 27.5
12:10 1018 30.06 847 25.01 12.6 54.6 34 -2.9 26.9
12:15 1018 30.06 847 25.01 13.1 55.5 33 -2.7 27.1
12:20 1018 30.06 847 25.01 13.2 55.7 33 -2.5 27.4
12:25 1018 30.06 847 25.01 12.9 55.3 33 -2.9 26.8
12:30 1018 30.06 847 25.01 12.8 55.1 33 -3 26.6
12:35 1018 30.06 847 25.01 13.2 55.8 32 -3.1 26.4
12:40 1018 30.06 847 25.01 13.4 56 31 -3.2 26.3
12:45 1018 30.06 847 25.01 13.2 55.7 33 -2.7 27.2
12:50 1017 30.03 847 25.01 12.3 54.1 33 -3.4 25.9
12:55 1018 30.06 847 25.01 12.1 53.8 35 -2.9 26.9
13:00 1017 30.03 847 25.01 12.2 54 35 -2.6 27.4
13:05 1018 30.06 847 25.01 12.6 54.7 32 -3.5 25.7
13:10 1017 30.03 847 25.01 12.8 55 34 -2.8 27
13:15 1017 30.03 847 25.01 13.4 56 31 -3.2 26.2
13:20 1017 30.03 847 25.01 14 57.3 30 -3 26.6
13:25 1017 30.03 847 25.01 13.1 55.6 31 -3.4 25.9
13:30 1017 30.03 847 25.01 13.2 55.8 31 -3.4 25.8
13:35 1017 30.03 847 25.01 13.4 56.1 31 -3.3 26.1
13:40 1017 30.03 847 25.01 14 57.1 29 -3.7 25.3
13:45 1017 30.03 846 24.98 14.3 57.7 28 -4.1 24.6
13:50 1017 30.03 846 24.98 15.2 59.3 27 -3.7 25.3
13:55 1017 30.03 846 24.98 14.3 57.7 28 -4.1 24.7
14:00 1017 30.03 847 25.01 14.3 57.8 26 -5 23
14:05 1017 30.03 847 25.01 14.5 58 26 -4.9 23.2
14:10 1017 30.03 847 25.01 14.9 58.9 25 -5 23
14:15 1017 30.03 846 24.98 15.6 60.1 23 -5.5 22.1
14:20 1017 30.03 846 24.98 15.4 59.6 22 -6 21.3
14:25 1017 30.03 846 24.98 15.8 60.4 22 -5.9 21.3
14:30 1017 30.03 846 24.98 15.6 60.1 20 -6.9 19.5
14:35 1017 30.03 846 24.98 15.5 59.9 19 -8 17.5
14:40 1017 30.03 846 24.98 15.7 60.3 20 -7.4 18.7
14:45 1017 30.03 846 24.98 16.2 61.1 19 -7.4 18.6
14:50 1017 30.03 846 24.98 16 60.8 19 -7.5 18.6
14:55 1017 30.03 846 24.98 15.8 60.4 19 -7.5 18.5
15:00 1017 30.03 846 24.98 15.9 60.6 20 -7.2 19
15:05 1017 30.03 846 24.98 16.1 61 18 -8 17.5
15:10 1017 30.03 846 24.98 16 60.7 18 -8.2 17.3
15:15 1017 30.03 846 24.98 16.1 60.9 17 -8.6 16.4
15:20 1017 30.03 846 24.98 16.5 61.7 18 -7.6 18.3
15:25 1017 30.03 846 24.98 16.2 61.2 16 -9.2 15.5
15:30 1017 30.03 846 24.98 15.5 59.9 17 -9.2 15.5
15:35 1017 30.03 847 25.01 15 59 18 -8.9 16
15:40 1017 30.03 846 24.98 15 59 18 -9.3 15.3
15:45 1017 30.03 846 24.98 15.3 59.5 18 -8.9 16
15:50 1017 30.03 846 24.98 15.3 59.5 16 -10.3 13.5
15:55 1017 30.03 846 24.98 15.2 59.4 15 -11 12.2
16:00 1017 30.03 847 25.01 15 58.9 17 -9.7 14.6
16:05 1017 30.03 847 25.01 15.1 59.2 15 -11 12.2
16:10 1017 30.03 847 25.01 15.2 59.4 17 -9.8 14.3
16:15 1017 30.03 847 25.01 15.7 60.3 16 -9.9 14.1
16:20 1017 30.03 847 25.01 15.3 59.5 15 -11.4 11.5
16:25 1017 30.03 847 25.01 15.1 59.2 15 -11.7 10.9
16:30 1017 30.03 847 25.01 15.7 60.2 14 -11.5 11.3
16:35 1017 30.03 847 25.01 15.7 60.2 14 -11.5 11.3
16:40 1018 30.06 847 25.01 15 58.9 15 -11.6 11.1
16:45 1018 30.06 847 25.01 14.6 58.4 14 -12.2 10
16:50 1018 30.06 847 25.01 14.7 58.5 13 -13.1 8.4
16:55 1018 30.06 847 25.01 14.6 58.3 14 -12.9 8.8
17:00 1018 30.06 847 25.01 14.6 58.3 14 -12.8 8.9
17:05 1018 30.06 847 25.01 14.7 58.4 13 -13.1 8.4
17:10 1018 30.06 847 25.01 14.8 58.6 14 -12.5 9.5
17:15 1018 30.06 847 25.01 15 59.1 14 -12.5 9.5
17:20 1018 30.06 847 25.01 14.9 58.9 13 -13.3 8
17:25 1018 30.06 847 25.01 14.9 58.8 13 -12.9 8.8
17:30 1018 30.06 847 25.01 15 58.9 13 -13.4 7.8
17:35 1018 30.06 847 25.01 15.2 59.4 13 -13.4 7.8
17:40 1018 30.06 847 25.01 15.8 60.4 12 -13.4 7.9
17:45 1018 30.06 847 25.01 15.4 59.6 13 -12.8 8.9
17:50 1018 30.06 847 25.01 15.3 59.5 12 -13.5 7.8
17:55 1018 30.06 847 25.01 15 59 14 -12.2 10.1
18:00 1018 30.06 847 25.01 15.1 59.1 15 -11.4 11.4
18:05 1018 30.06 847 25.01 14.8 58.7 18 -9.3 15.3
18:10 1018 30.06 848 25.04 15 59.1 15 -11.2 11.9
18:15 1018 30.06 847 25.01 15 58.9 15 -11.4 11.4
18:20 1018 30.06 847 25.01 14.9 58.7 14 -12.5 9.6
18:25 1018 30.06 848 25.04 15 59 12 -14.3 6.3
18:30 1018 30.06 848 25.04 14.9 58.9 15 -11.8 10.8
18:35 1018 30.06 848 25.04 14.4 57.8 18 -9.9 14.2
18:40 1018 30.06 848 25.04 14.1 57.4 17 -10.8 12.6
18:45 1019 30.09 848 25.04 13.7 56.7 18 -10.1 13.7
18:50 1019 30.09 848 25.04 13.9 57.1 17 -10.8 12.6
18:55 1019 30.09 848 25.04 13.4 56.1 19 -10 13.9
19:00 1019 30.09 848 25.04 13 55.4 18 -10.5 13.2
19:05 1019 30.09 848 25.04 12.7 54.9 18 -10.8 12.5
19:10 1019 30.09 848 25.04 12.8 55 18 -11.1 12
19:15 1019 30.09 848 25.04 12.9 55.2 17 -11.3 11.6
19:20 1019 30.09 848 25.04 12.6 54.6 17 -11.6 11.2
19:25 1019 30.09 848 25.04 12.4 54.3 17 -12 10.4
19:30 1019 30.09 848 25.04 12.4 54.3 18 -11.2 11.9
19:35 1019 30.09 848 25.04 12.3 54.1 19 -10.5 13
19:40 1019 30.09 848 25.04 12.1 53.8 19 -10.8 12.5
19:45 1019 30.09 849 25.07 12 53.5 19 -10.8 12.6
19:50 1019 30.09 849 25.07 11.8 53.3 20 -10.6 12.9
19:55 1019 30.09 849 25.07 11.7 53.1 20 -10.6 12.9
20:00 1020 30.12 849 25.07 11.6 52.8 20 -10.7 12.8
20:05 1020 30.12 849 25.07 11.5 52.7 20 -10.6 13
20:10 1020 30.12 849 25.07 11.4 52.5 20 -10.5 13
20:15 1020 30.12 849 25.07 11.2 52.1 21 -10.1 13.8
20:20 1020 30.12 849 25.07 11 51.9 22 -10.1 13.8
20:25 1020 30.12 849 25.07 11.1 52 22 -10 13.9
20:30 1020 30.12 849 25.07 11 51.8 21 -10.4 13.3
20:35 1020 30.12 849 25.07 11 51.9 22 -10.1 13.8
20:40 1020 30.12 849 25.07 11 51.7 22 -10.2 13.7
20:45 1020 30.12 849 25.07 10.8 51.5 22 -9.8 14.4
20:50 1020 30.12 849 25.07 10.7 51.2 23 -9.6 14.6
20:55 1020 30.12 849 25.07 10.6 51.1 23 -9.5 15
21:00 1020 30.12 849 25.07 10.4 50.8 24 -9.5 14.9
21:05 1020 30.12 849 25.07 10.3 50.5 23 -9.8 14.3
21:10 1020 30.12 850 25.1 10.1 50.3 24 -9.8 14.4
21:15 1020 30.12 850 25.1 10 50 24 -9.9 14.1
21:20 1021 30.15 850 25.1 9.8 49.7 24 -9.7 14.5
21:25 1021 30.15 850 25.1 9.7 49.5 25 -9.7 14.6
21:30 1021 30.15 850 25.1 9.6 49.2 25 -9.7 14.6
21:35 1021 30.15 850 25.1 9.5 49 25 -9.7 14.6
21:40 1021 30.15 850 25.1 9.3 48.8 25 -9.8 14.4
21:45 1021 30.15 850 25.1 9.2 48.5 25 -9.9 14.1
21:50 1021 30.15 850 25.1 9.3 48.7 25 -9.6 14.7
21:55 1021 30.15 850 25.1 8.4 47.1 31 -7.7 18.2
22:00 1021 30.15 851 25.13 7.5 45.5 32 -8.1 17.4
22:05 1021 30.15 851 25.13 7.6 45.6 29 -9.3 15.3
22:10 1021 30.15 851 25.13 7.5 45.4 32 -8 17.6
22:15 1022 30.18 851 25.13 7.2 44.9 32 -8.3 17
22:20 1022 30.18 851 25.13 7.1 44.8 34 -7.9 17.8
22:25 1022 30.18 851 25.13 6.7 44 35 -7.8 18
22:30 1022 30.18 851 25.13 6.4 43.4 36 -7.8 18
22:35 1022 30.18 851 25.13 6.3 43.3 35 -8 17.6
22:40 1022 30.18 851 25.13 6.2 43.1 37 -7.4 18.6
22:45 1022 30.18 851 25.13 5.8 42.5 42 -6.1 21
22:50 1022 30.18 851 25.13 5.3 41.6 38 -7.7 18.1
22:55 1022 30.18 851 25.13 5.6 42.1 36 -8.3 17.1
23:00 1022 30.18 851 25.13 6.1 43 36 -7.9 17.7
23:05 1022 30.18 851 25.13 5.9 42.6 36 -8.2 17.2
23:10 1022 30.18 851 25.13 6.2 43.2 34 -8.6 16.5
23:15 1022 30.18 851 25.13 6.2 43.2 36 -7.8 18
23:20 1022 30.18 851 25.13 5.9 42.6 35 -8.3 17.1
23:25 1022 30.18 851 25.13 5.9 42.5 37 -7.8 18
23:30 1022 30.18 851 25.13 5.6 42.2 37 -7.8 18
23:35 1022 30.18 851 25.13 5.7 42.2 39 -7.3 18.8
23:40 1022 30.18 851 25.13 5.5 41.9 40 -7 19.4
23:45 1022 30.18 852 25.16 4.9 40.9 43 -6.6 20.1
23:50 1022 30.18 852 25.16 4.4 39.9 47 -6 21.1
23:55 1022 30.18 852 25.16 3.9 39 47 -6.5 20.3
24:00 1022 30.18 852 25.16 3.6 38.6 47 -6.8 19.8